Terminal Aerodrome Forecast
Issued by NWS

Home | Current Version | Previous Version | Text Only | Print | Product List | Glossary On
Versions: 1 2 3 4 5 6 7 8 9 10 11 12 13 14 15 16
000
FTUS45 KTFX 221733
TAFLWT
TAF
KLWT 221733Z 2218/2318 VRB04KT P6SM SCT020 BKN035
      TEMPO 2218/2222 4SM -SHSNRA BR BKN012
     FM222200 02005KT P6SM VCSH SCT010 BKN025
      TEMPO 2223/2303 -SHSNRA BKN010
     FM230400 VRB04KT P6SM VCSH SCT020 BKN040 PROB30 2308/2310 5SM
      -SHSNRA BR BKN020
     FM231500 VRB05KT P6SM SCT030 BKN060=

USA.gov is the U.S. government's official web portal to all federal, state and local government web resources and services.